sensor_id;sensor_type;location;lat;lon;timestamp;pressure;altitude;pressure_sealevel;temperature;humidity
75740;BME280;64357;51.344;6.550;2023-04-29T00:00:11;100866.59;;;11.20;100.00
75740;BME280;64357;51.344;6.550;2023-04-29T00:02:39;100871.09;;;11.06;100.00
75740;BME280;64357;51.344;6.550;2023-04-29T00:05:04;100871.69;;;10.94;100.00
75740;BME280;64357;51.344;6.550;2023-04-29T00:07:30;100868.06;;;10.84;100.00
75740;BME280;64357;51.344;6.550;2023-04-29T00:09:58;100873.50;;;10.95;100.00
75740;BME280;64357;51.344;6.550;2023-04-29T00:12:24;100860.09;;;10.89;100.00
75740;BME280;64357;51.344;6.550;2023-04-29T00:14:53;100864.94;;;11.04;100.00
75740;BME280;64357;51.344;6.550;2023-04-29T00:17:18;100864.63;;;11.01;100.00
75740;BME280;64357;51.344;6.550;2023-04-29T00:19:46;100871.84;;;11.05;100.00
75740;BME280;64357;51.344;6.550;2023-04-29T00:22:12;100874.53;;;11.06;100.00
75740;BME280;64357;51.344;6.550;2023-04-29T00:24:37;100873.50;;;11.04;100.00
75740;BME280;64357;51.344;6.550;2023-04-29T00:27:05;100872.31;;;11.09;100.00
75740;BME280;64357;51.344;6.550;2023-04-29T00:29:31;100883.28;;;11.08;100.00
75740;BME280;64357;51.344;6.550;2023-04-29T00:31:59;100881.91;;;11.12;100.00
75740;BME280;64357;51.344;6.550;2023-04-29T00:34:27;100887.78;;;11.11;100.00
75740;BME280;64357;51.344;6.550;2023-04-29T00:36:52;100895.44;;;11.02;100.00
75740;BME280;64357;51.344;6.550;2023-04-29T00:39:20;100894.69;;;10.86;100.00
75740;BME280;64357;51.344;6.550;2023-04-29T00:41:46;100896.63;;;10.71;100.00
75740;BME280;64357;51.344;6.550;2023-04-29T00:44:11;100900.97;;;10.63;100.00
75740;BME280;64357;51.344;6.550;2023-04-29T00:46:36;100899.31;;;10.73;100.00
75740;BME280;64357;51.344;6.550;2023-04-29T00:49:04;100910.78;;;10.67;100.00
75740;BME280;64357;51.344;6.550;2023-04-29T00:51:30;100901.41;;;10.59;100.00
75740;BME280;64357;51.344;6.550;2023-04-29T00:53:58;100901.31;;;10.75;100.00
75740;BME280;64357;51.344;6.550;2023-04-29T00:56:24;100911.81;;;10.78;100.00
75740;BME280;64357;51.344;6.550;2023-04-29T00:58:50;100919.16;;;10.66;100.00
75740;BME280;64357;51.344;6.550;2023-04-29T01:01:17;100919.44;;;10.61;100.00
75740;BME280;64357;51.344;6.550;2023-04-29T01:03:43;100919.13;;;10.49;100.00
75740;BME280;64357;51.344;6.550;2023-04-29T01:08:51;100920.75;;;10.40;100.00
75740;BME280;64357;51.344;6.550;2023-04-29T01:11:27;100920.44;;;10.37;100.00
75740;BME280;64357;51.344;6.550;2023-04-29T01:13:58;100923.59;;;10.43;100.00
75740;BME280;64357;51.344;6.550;2023-04-29T01:16:36;100932.00;;;10.33;100.00
75740;BME280;64357;51.344;6.550;2023-04-29T01:19:22;100928.59;;;10.50;100.00
75740;BME280;64357;51.344;6.550;2023-04-29T01:21:50;100928.00;;;10.53;100.00
75740;BME280;64357;51.344;6.550;2023-04-29T01:24:18;100933.72;;;10.59;100.00
75740;BME280;64357;51.344;6.550;2023-04-29T01:26:51;100937.47;;;10.54;100.00
75740;BME280;64357;51.344;6.550;2023-04-29T01:29:27;100945.13;;;10.54;100.00
75740;BME280;64357;51.344;6.550;2023-04-29T01:32:12;100940.72;;;10.35;100.00
75740;BME280;64357;51.344;6.550;2023-04-29T01:34:48;100936.16;;;10.24;100.00
75740;BME280;64357;51.344;6.550;2023-04-29T01:37:47;100941.88;;;10.30;100.00
75740;BME280;64357;51.344;6.550;2023-04-29T01:40:21;100952.47;;;10.18;100.00
75740;BME280;64357;51.344;6.550;2023-04-29T01:43:02;100957.16;;;10.22;100.00
75740;BME280;64357;51.344;6.550;2023-04-29T01:45:29;100945.25;;;10.13;100.00
75740;BME280;64357;51.344;6.550;2023-04-29T01:47:58;100957.81;;;10.03;100.00
75740;BME280;64357;51.344;6.550;2023-04-29T01:50:26;100956.06;;;10.20;100.00
75740;BME280;64357;51.344;6.550;2023-04-29T01:52:51;100964.59;;;10.11;100.00
75740;BME280;64357;51.344;6.550;2023-04-29T01:55:17;100951.53;;;9.84;100.00
75740;BME280;64357;51.344;6.550;2023-04-29T01:57:43;100958.34;;;9.92;100.00
75740;BME280;64357;51.344;6.550;2023-04-29T02:00:09;100954.72;;;9.90;100.00
75740;BME280;64357;51.344;6.550;2023-04-29T02:02:37;100964.50;;;9.94;100.00
75740;BME280;64357;51.344;6.550;2023-04-29T02:05:03;100961.66;;;9.91;100.00
75740;BME280;64357;51.344;6.550;2023-04-29T02:07:34;100953.03;;;9.82;100.00
75740;BME280;64357;51.344;6.550;2023-04-29T02:10:01;100966.19;;;10.02;100.00
75740;BME280;64357;51.344;6.550;2023-04-29T02:12:26;100972.13;;;9.85;100.00
75740;BME280;64357;51.344;6.550;2023-04-29T02:14:54;100978.69;;;9.83;100.00
75740;BME280;64357;51.344;6.550;2023-04-29T02:17:23;100969.09;;;9.81;100.00
75740;BME280;64357;51.344;6.550;2023-04-29T02:19:48;100979.59;;;9.84;100.00
75740;BME280;64357;51.344;6.550;2023-04-29T02:22:18;100982.38;;;9.70;100.00
75740;BME280;64357;51.344;6.550;2023-04-29T02:24:44;100986.69;;;9.62;100.00
75740;BME280;64357;51.344;6.550;2023-04-29T02:27:09;100983.69;;;9.66;100.00
75740;BME280;64357;51.344;6.550;2023-04-29T02:29:35;100988.34;;;9.61;100.00
75740;BME280;64357;51.344;6.550;2023-04-29T02:32:00;100992.25;;;9.67;100.00
75740;BME280;64357;51.344;6.550;2023-04-29T02:34:26;100986.03;;;9.56;100.00
75740;BME280;64357;51.344;6.550;2023-04-29T02:36:51;100992.03;;;9.56;100.00
75740;BME280;64357;51.344;6.550;2023-04-29T02:39:17;100993.63;;;9.72;100.00
75740;BME280;64357;51.344;6.550;2023-04-29T02:41:44;100994.22;;;9.69;100.00
75740;BME280;64357;51.344;6.550;2023-04-29T02:44:09;100993.75;;;9.65;100.00
75740;BME280;64357;51.344;6.550;2023-04-29T02:46:37;100995.13;;;9.70;100.00
75740;BME280;64357;51.344;6.550;2023-04-29T02:49:11;101008.94;;;9.72;100.00
75740;BME280;64357;51.344;6.550;2023-04-29T02:51:37;101006.50;;;9.65;100.00
75740;BME280;64357;51.344;6.550;2023-04-29T02:54:03;101000.78;;;9.67;100.00
75740;BME280;64357;51.344;6.550;2023-04-29T02:56:31;101013.50;;;9.58;100.00
75740;BME280;64357;51.344;6.550;2023-04-29T02:58:56;101017.09;;;9.60;100.00
75740;BME280;64357;51.344;6.550;2023-04-29T03:01:24;101019.09;;;9.47;100.00
75740;BME280;64357;51.344;6.550;2023-04-29T03:03:49;101017.69;;;9.58;100.00
75740;BME280;64357;51.344;6.550;2023-04-29T03:06:14;101014.81;;;9.55;100.00
75740;BME280;64357;51.344;6.550;2023-04-29T03:08:40;101023.72;;;9.43;100.00
75740;BME280;64357;51.344;6.550;2023-04-29T03:11:08;101018.84;;;9.37;100.00
75740;BME280;64357;51.344;6.550;2023-04-29T03:13:35;101012.22;;;9.30;100.00
75740;BME280;64357;51.344;6.550;2023-04-29T03:16:04;101029.72;;;9.43;100.00
75740;BME280;64357;51.344;6.550;2023-04-29T03:18:31;101025.84;;;9.31;100.00
75740;BME280;64357;51.344;6.550;2023-04-29T03:20:56;101034.91;;;9.36;100.00
75740;BME280;64357;51.344;6.550;2023-04-29T03:23:24;101041.81;;;9.37;100.00
75740;BME280;64357;51.344;6.550;2023-04-29T03:25:50;101034.50;;;9.40;100.00
75740;BME280;64357;51.344;6.550;2023-04-29T03:28:17;101040.34;;;9.39;100.00
75740;BME280;64357;51.344;6.550;2023-04-29T03:30:42;101041.31;;;9.48;100.00
75740;BME280;64357;51.344;6.550;2023-04-29T03:33:08;101038.66;;;9.55;100.00
75740;BME280;64357;51.344;6.550;2023-04-29T03:35:35;101044.94;;;9.50;100.00
75740;BME280;64357;51.344;6.550;2023-04-29T03:38:03;101048.47;;;9.44;100.00
75740;BME280;64357;51.344;6.550;2023-04-29T03:40:31;101048.56;;;9.52;100.00
75740;BME280;64357;51.344;6.550;2023-04-29T03:43:00;101045.09;;;9.52;100.00
75740;BME280;64357;51.344;6.550;2023-04-29T03:45:26;101051.50;;;9.48;100.00
75740;BME280;64357;51.344;6.550;2023-04-29T03:47:51;101034.41;;;9.47;100.00
75740;BME280;64357;51.344;6.550;2023-04-29T03:50:18;101057.19;;;9.46;100.00
75740;BME280;64357;51.344;6.550;2023-04-29T03:52:44;101054.25;;;9.50;100.00
75740;BME280;64357;51.344;6.550;2023-04-29T03:55:11;101062.16;;;9.44;100.00
75740;BME280;64357;51.344;6.550;2023-04-29T03:57:41;101061.31;;;9.52;100.00
75740;BME280;64357;51.344;6.550;2023-04-29T04:00:10;101053.41;;;9.42;100.00
75740;BME280;64357;51.344;6.550;2023-04-29T04:02:35;101057.94;;;9.45;100.00
75740;BME280;64357;51.344;6.550;2023-04-29T04:05:01;101062.03;;;9.20;100.00
75740;BME280;64357;51.344;6.550;2023-04-29T04:07:26;101061.13;;;9.19;100.00
75740;BME280;64357;51.344;6.550;2023-04-29T04:09:51;101059.91;;;9.31;100.00
75740;BME280;64357;51.344;6.550;2023-04-29T04:12:19;101072.84;;;9.33;100.00
75740;BME280;64357;51.344;6.550;2023-04-29T04:14:44;101066.72;;;9.24;100.00
75740;BME280;64357;51.344;6.550;2023-04-29T04:17:10;101073.22;;;9.29;100.00
75740;BME280;64357;51.344;6.550;2023-04-29T04:19:35;101066.31;;;9.12;100.00
75740;BME280;64357;51.344;6.550;2023-04-29T04:22:02;101075.13;;;9.23;100.00
75740;BME280;64357;51.344;6.550;2023-04-29T04:24:27;101083.50;;;9.22;100.00
75740;BME280;64357;51.344;6.550;2023-04-29T04:26:55;101082.19;;;9.25;100.00
75740;BME280;64357;51.344;6.550;2023-04-29T04:29:21;101080.63;;;9.34;100.00
75740;BME280;64357;51.344;6.550;2023-04-29T04:31:48;101079.81;;;9.43;100.00
75740;BME280;64357;51.344;6.550;2023-04-29T04:34:14;101079.25;;;9.45;100.00
75740;BME280;64357;51.344;6.550;2023-04-29T04:36:39;101097.75;;;9.51;100.00
75740;BME280;64357;51.344;6.550;2023-04-29T04:39:05;101080.91;;;9.45;100.00
75740;BME280;64357;51.344;6.550;2023-04-29T04:41:33;101095.19;;;9.51;100.00
75740;BME280;64357;51.344;6.550;2023-04-29T04:44:01;101096.00;;;9.27;100.00
75740;BME280;64357;51.344;6.550;2023-04-29T04:46:27;101102.00;;;9.44;100.00
75740;BME280;64357;51.344;6.550;2023-04-29T04:48:57;101099.66;;;9.45;100.00
75740;BME280;64357;51.344;6.550;2023-04-29T04:51:22;101101.59;;;9.48;100.00
75740;BME280;64357;51.344;6.550;2023-04-29T04:53:50;101117.06;;;9.49;100.00
75740;BME280;64357;51.344;6.550;2023-04-29T04:56:15;101105.97;;;9.49;100.00
75740;BME280;64357;51.344;6.550;2023-04-29T04:58:41;101111.16;;;9.42;100.00
75740;BME280;64357;51.344;6.550;2023-04-29T05:01:06;101116.50;;;9.52;100.00
75740;BME280;64357;51.344;6.550;2023-04-29T05:03:34;101119.69;;;9.42;100.00
75740;BME280;64357;51.344;6.550;2023-04-29T05:06:00;101125.88;;;9.60;100.00
75740;BME280;64357;51.344;6.550;2023-04-29T05:08:25;101121.22;;;9.56;100.00
75740;BME280;64357;51.344;6.550;2023-04-29T05:10:51;101117.47;;;9.61;100.00
75740;BME280;64357;51.344;6.550;2023-04-29T05:13:17;101129.91;;;9.58;100.00
75740;BME280;64357;51.344;6.550;2023-04-29T05:15:42;101134.44;;;9.60;100.00
75740;BME280;64357;51.344;6.550;2023-04-29T05:18:09;101142.00;;;9.52;100.00
75740;BME280;64357;51.344;6.550;2023-04-29T05:20:39;101136.81;;;9.59;100.00
75740;BME280;64357;51.344;6.550;2023-04-29T05:23:07;101141.84;;;9.66;100.00
75740;BME280;64357;51.344;6.550;2023-04-29T05:25:33;101143.38;;;9.73;100.00
75740;BME280;64357;51.344;6.550;2023-04-29T05:27:58;101145.47;;;9.68;100.00
75740;BME280;64357;51.344;6.550;2023-04-29T05:30:24;101152.44;;;9.78;100.00
75740;BME280;64357;51.344;6.550;2023-04-29T05:32:49;101161.75;;;9.77;100.00
75740;BME280;64357;51.344;6.550;2023-04-29T05:35:14;101152.38;;;9.69;100.00
75740;BME280;64357;51.344;6.550;2023-04-29T05:37:40;101166.69;;;9.76;100.00
75740;BME280;64357;51.344;6.550;2023-04-29T05:40:07;101165.28;;;9.71;100.00
75740;BME280;64357;51.344;6.550;2023-04-29T05:42:33;101169.34;;;9.69;100.00
75740;BME280;64357;51.344;6.550;2023-04-29T05:44:59;101165.53;;;9.65;100.00
75740;BME280;64357;51.344;6.550;2023-04-29T05:47:24;101173.44;;;9.75;100.00
75740;BME280;64357;51.344;6.550;2023-04-29T05:49:54;101159.78;;;9.75;100.00
75740;BME280;64357;51.344;6.550;2023-04-29T05:52:19;101175.41;;;9.78;100.00
75740;BME280;64357;51.344;6.550;2023-04-29T05:54:45;101161.09;;;9.71;100.00
75740;BME280;64357;51.344;6.550;2023-04-29T05:57:10;101185.63;;;9.78;100.00
75740;BME280;64357;51.344;6.550;2023-04-29T05:59:38;101181.75;;;9.81;100.00
75740;BME280;64357;51.344;6.550;2023-04-29T06:02:08;101189.66;;;9.92;100.00
75740;BME280;64357;51.344;6.550;2023-04-29T06:04:34;101186.94;;;9.90;100.00
75740;BME280;64357;51.344;6.550;2023-04-29T06:07:00;101192.13;;;9.83;100.00
75740;BME280;64357;51.344;6.550;2023-04-29T06:09:25;101189.41;;;9.66;100.00
75740;BME280;64357;51.344;6.550;2023-04-29T06:11:53;101208.34;;;9.83;100.00
75740;BME280;64357;51.344;6.550;2023-04-29T06:14:18;101212.03;;;9.78;100.00
75740;BME280;64357;51.344;6.550;2023-04-29T06:16:46;101219.69;;;9.94;100.00
75740;BME280;64357;51.344;6.550;2023-04-29T06:19:13;101222.09;;;9.93;100.00
75740;BME280;64357;51.344;6.550;2023-04-29T06:21:38;101230.25;;;9.97;100.00
75740;BME280;64357;51.344;6.550;2023-04-29T06:24:06;101224.50;;;9.91;100.00
75740;BME280;64357;51.344;6.550;2023-04-29T06:26:32;101236.66;;;9.94;100.00
75740;BME280;64357;51.344;6.550;2023-04-29T06:29:00;101237.16;;;9.98;100.00
75740;BME280;64357;51.344;6.550;2023-04-29T06:31:27;101232.38;;;10.01;100.00
75740;BME280;64357;51.344;6.550;2023-04-29T06:33:53;101241.59;;;9.92;99.58
75740;BME280;64357;51.344;6.550;2023-04-29T06:36:19;101247.63;;;9.93;100.00
75740;BME280;64357;51.344;6.550;2023-04-29T06:38:44;101235.66;;;9.84;100.00
75740;BME280;64357;51.344;6.550;2023-04-29T06:41:09;101243.91;;;9.82;100.00
75740;BME280;64357;51.344;6.550;2023-04-29T06:43:35;101244.88;;;9.75;100.00
75740;BME280;64357;51.344;6.550;2023-04-29T06:46:00;101241.59;;;9.76;100.00
75740;BME280;64357;51.344;6.550;2023-04-29T06:48:26;101237.88;;;9.81;100.00
75740;BME280;64357;51.344;6.550;2023-04-29T06:50:56;101253.22;;;9.97;100.00
75740;BME280;64357;51.344;6.550;2023-04-29T06:53:23;101260.13;;;9.98;99.76
75740;BME280;64357;51.344;6.550;2023-04-29T06:55:49;101258.13;;;9.96;99.34
75740;BME280;64357;51.344;6.550;2023-04-29T06:58:16;101260.69;;;9.96;100.00
75740;BME280;64357;51.344;6.550;2023-04-29T07:00:49;101256.34;;;10.10;98.92
75740;BME280;64357;51.344;6.550;2023-04-29T07:03:15;101261.19;;;10.00;98.96
75740;BME280;64357;51.344;6.550;2023-04-29T07:05:42;101268.63;;;10.22;98.14
75740;BME280;64357;51.344;6.550;2023-04-29T07:08:09;101267.88;;;10.23;97.23
75740;BME280;64357;51.344;6.550;2023-04-29T07:10:35;101273.16;;;10.24;96.37
75740;BME280;64357;51.344;6.550;2023-04-29T07:13:00;101268.47;;;10.36;95.88
75740;BME280;64357;51.344;6.550;2023-04-29T07:15:27;101278.19;;;10.47;95.59
75740;BME280;64357;51.344;6.550;2023-04-29T07:17:54;101274.41;;;10.44;94.25
75740;BME280;64357;51.344;6.550;2023-04-29T07:20:25;101282.00;;;10.35;94.03
75740;BME280;64357;51.344;6.550;2023-04-29T07:22:52;101290.06;;;10.31;94.69
75740;BME280;64357;51.344;6.550;2023-04-29T07:25:18;101284.88;;;10.38;94.63
75740;BME280;64357;51.344;6.550;2023-04-29T07:27:43;101292.47;;;10.45;94.78
75740;BME280;64357;51.344;6.550;2023-04-29T07:30:11;101302.72;;;10.54;93.66
75740;BME280;64357;51.344;6.550;2023-04-29T07:32:37;101302.50;;;10.44;93.81
75740;BME280;64357;51.344;6.550;2023-04-29T07:35:02;101309.25;;;10.43;92.74
75740;BME280;64357;51.344;6.550;2023-04-29T07:37:30;101305.03;;;10.59;93.46
75740;BME280;64357;51.344;6.550;2023-04-29T07:39:55;101305.13;;;10.68;91.44
75740;BME280;64357;51.344;6.550;2023-04-29T07:42:23;101299.25;;;10.85;91.31
75740;BME280;64357;51.344;6.550;2023-04-29T07:44:49;101299.94;;;11.00;91.57
75740;BME280;64357;51.344;6.550;2023-04-29T07:47:14;101301.03;;;11.35;89.94
75740;BME280;64357;51.344;6.550;2023-04-29T07:49:39;101292.69;;;11.44;88.76
75740;BME280;64357;51.344;6.550;2023-04-29T07:52:06;101309.13;;;11.31;87.43
75740;BME280;64357;51.344;6.550;2023-04-29T07:54:34;101314.16;;;11.13;89.18
75740;BME280;64357;51.344;6.550;2023-04-29T07:57:00;101323.41;;;11.20;89.16
75740;BME280;64357;51.344;6.550;2023-04-29T07:59:27;101320.75;;;11.11;89.16
75740;BME280;64357;51.344;6.550;2023-04-29T08:01:55;101323.22;;;11.18;89.37
75740;BME280;64357;51.344;6.550;2023-04-29T08:04:21;101318.53;;;11.14;88.64
75740;BME280;64357;51.344;6.550;2023-04-29T08:06:46;101313.06;;;11.03;89.33
75740;BME280;64357;51.344;6.550;2023-04-29T08:09:13;101328.78;;;11.14;89.83
75740;BME280;64357;51.344;6.550;2023-04-29T08:11:38;101330.38;;;10.89;90.49
75740;BME280;64357;51.344;6.550;2023-04-29T08:14:06;101346.66;;;10.74;90.64
75740;BME280;64357;51.344;6.550;2023-04-29T08:16:32;101343.44;;;10.68;91.56
75740;BME280;64357;51.344;6.550;2023-04-29T08:18:57;101352.19;;;10.70;91.29
75740;BME280;64357;51.344;6.550;2023-04-29T08:21:25;101339.66;;;10.64;91.58
75740;BME280;64357;51.344;6.550;2023-04-29T08:23:54;101352.25;;;10.47;91.63
75740;BME280;64357;51.344;6.550;2023-04-29T08:26:20;101359.19;;;10.64;91.63
75740;BME280;64357;51.344;6.550;2023-04-29T08:28:46;101352.81;;;10.60;91.61
75740;BME280;64357;51.344;6.550;2023-04-29T08:31:19;101356.97;;;10.51;91.70
75740;BME280;64357;51.344;6.550;2023-04-29T08:33:44;101369.31;;;10.55;91.94
75740;BME280;64357;51.344;6.550;2023-04-29T08:36:13;101365.69;;;10.53;91.99
75740;BME280;64357;51.344;6.550;2023-04-29T08:38:41;101371.84;;;10.55;92.20
75740;BME280;64357;51.344;6.550;2023-04-29T08:41:35;101366.50;;;10.61;92.32
75740;BME280;64357;51.344;6.550;2023-04-29T08:44:00;101368.16;;;10.60;93.00
75740;BME280;64357;51.344;6.550;2023-04-29T08:46:26;101375.59;;;10.50;92.44
75740;BME280;64357;51.344;6.550;2023-04-29T08:48:53;101371.88;;;10.39;92.92
75740;BME280;64357;51.344;6.550;2023-04-29T08:51:22;101377.28;;;10.43;92.83
75740;BME280;64357;51.344;6.550;2023-04-29T08:53:48;101385.47;;;10.47;93.01
75740;BME280;64357;51.344;6.550;2023-04-29T08:56:17;101383.38;;;10.36;93.35
75740;BME280;64357;51.344;6.550;2023-04-29T08:58:46;101389.53;;;10.22;93.55
75740;BME280;64357;51.344;6.550;2023-04-29T09:01:19;101392.81;;;10.44;93.84
75740;BME280;64357;51.344;6.550;2023-04-29T09:06:47;101396.28;;;10.45;92.20
75740;BME280;64357;51.344;6.550;2023-04-29T09:09:13;101387.78;;;10.53;92.27
75740;BME280;64357;51.344;6.550;2023-04-29T09:11:47;101396.44;;;10.62;92.00
75740;BME280;64357;51.344;6.550;2023-04-29T09:14:15;101398.75;;;10.67;91.69
75740;BME280;64357;51.344;6.550;2023-04-29T09:16:41;101395.53;;;10.46;91.70
75740;BME280;64357;51.344;6.550;2023-04-29T09:22:02;101404.50;;;10.58;91.05
75740;BME280;64357;51.344;6.550;2023-04-29T09:24:32;101392.47;;;10.41;91.36
75740;BME280;64357;51.344;6.550;2023-04-29T09:26:58;101403.75;;;10.43;92.36
75740;BME280;64357;51.344;6.550;2023-04-29T09:29:27;101383.00;;;10.40;91.96
75740;BME280;64357;51.344;6.550;2023-04-29T09:31:53;101407.72;;;10.64;91.87
75740;BME280;64357;51.344;6.550;2023-04-29T09:34:49;101414.56;;;10.88;91.55
75740;BME280;64357;51.344;6.550;2023-04-29T09:37:26;101415.56;;;10.97;90.19
75740;BME280;64357;51.344;6.550;2023-04-29T09:39:52;101418.53;;;10.93;90.80
75740;BME280;64357;51.344;6.550;2023-04-29T09:42:18;101416.22;;;11.03;89.85
75740;BME280;64357;51.344;6.550;2023-04-29T09:44:45;101416.28;;;10.96;89.52
75740;BME280;64357;51.344;6.550;2023-04-29T09:47:11;101415.63;;;10.90;90.03
75740;BME280;64357;51.344;6.550;2023-04-29T09:49:39;101421.72;;;10.99;89.61
75740;BME280;64357;51.344;6.550;2023-04-29T09:52:13;101424.53;;;11.09;88.85
75740;BME280;64357;51.344;6.550;2023-04-29T09:54:40;101424.59;;;11.18;89.23
75740;BME280;64357;51.344;6.550;2023-04-29T09:57:07;101434.81;;;11.34;88.27
75740;BME280;64357;51.344;6.550;2023-04-29T09:59:39;101435.16;;;11.21;88.46
75740;BME280;64357;51.344;6.550;2023-04-29T10:02:18;101427.41;;;11.12;88.95
75740;BME280;64357;51.344;6.550;2023-04-29T10:04:45;101428.91;;;11.10;89.29
75740;BME280;64357;51.344;6.550;2023-04-29T10:07:14;101437.97;;;11.15;87.52
75740;BME280;64357;51.344;6.550;2023-04-29T10:09:41;101440.72;;;11.26;88.27
75740;BME280;64357;51.344;6.550;2023-04-29T10:12:17;101438.06;;;11.48;88.06
75740;BME280;64357;51.344;6.550;2023-04-29T10:17:51;101453.28;;;11.31;87.21
75740;BME280;64357;51.344;6.550;2023-04-29T10:20:22;101451.59;;;11.47;87.18
75740;BME280;64357;51.344;6.550;2023-04-29T10:22:49;101450.28;;;11.51;86.16
75740;BME280;64357;51.344;6.550;2023-04-29T10:25:20;101452.19;;;11.45;86.05
75740;BME280;64357;51.344;6.550;2023-04-29T10:27:48;101444.44;;;11.61;85.46
75740;BME280;64357;51.344;6.550;2023-04-29T10:30:34;101444.38;;;11.68;85.43
75740;BME280;64357;51.344;6.550;2023-04-29T10:33:01;101440.28;;;11.61;84.97
75740;BME280;64357;51.344;6.550;2023-04-29T10:35:30;101440.84;;;11.59;84.96
75740;BME280;64357;51.344;6.550;2023-04-29T10:37:58;101453.06;;;11.61;85.07
75740;BME280;64357;51.344;6.550;2023-04-29T10:42:54;101462.94;;;11.74;84.83
75740;BME280;64357;51.344;6.550;2023-04-29T10:53:10;101471.59;;;11.83;84.65
75740;BME280;64357;51.344;6.550;2023-04-29T10:55:37;101468.22;;;12.00;83.52
75740;BME280;64357;51.344;6.550;2023-04-29T10:58:41;101468.03;;;12.23;83.36
75740;BME280;64357;51.344;6.550;2023-04-29T11:01:13;101466.44;;;12.32;81.34
75740;BME280;64357;51.344;6.550;2023-04-29T11:03:49;101472.78;;;12.44;80.35
75740;BME280;64357;51.344;6.550;2023-04-29T11:06:21;101463.03;;;12.58;79.29
75740;BME280;64357;51.344;6.550;2023-04-29T11:08:58;101463.94;;;12.49;79.88
75740;BME280;64357;51.344;6.550;2023-04-29T11:11:23;101463.25;;;12.35;79.35
75740;BME280;64357;51.344;6.550;2023-04-29T11:13:51;101473.84;;;12.46;80.61
75740;BME280;64357;51.344;6.550;2023-04-29T11:16:24;101468.50;;;12.78;79.56
75740;BME280;64357;51.344;6.550;2023-04-29T11:19:06;101473.66;;;12.95;78.17
75740;BME280;64357;51.344;6.550;2023-04-29T11:21:33;101470.97;;;13.02;78.78
75740;BME280;64357;51.344;6.550;2023-04-29T11:24:02;101471.88;;;13.03;78.13
75740;BME280;64357;51.344;6.550;2023-04-29T11:26:34;101470.69;;;13.08;77.35
75740;BME280;64357;51.344;6.550;2023-04-29T11:29:00;101464.66;;;13.33;76.47
75740;BME280;64357;51.344;6.550;2023-04-29T11:31:29;101463.31;;;13.46;75.36
75740;BME280;64357;51.344;6.550;2023-04-29T11:33:54;101464.03;;;13.62;75.47
75740;BME280;64357;51.344;6.550;2023-04-29T11:36:20;101463.03;;;14.05;73.79
75740;BME280;64357;51.344;6.550;2023-04-29T11:38:45;101478.47;;;13.87;72.12
75740;BME280;64357;51.344;6.550;2023-04-29T11:41:15;101465.72;;;13.62;73.10
75740;BME280;64357;51.344;6.550;2023-04-29T11:43:46;101469.94;;;13.52;72.74
75740;BME280;64357;51.344;6.550;2023-04-29T11:46:13;101475.06;;;13.61;72.48
75740;BME280;64357;51.344;6.550;2023-04-29T11:48:45;101457.81;;;13.77;72.48
75740;BME280;64357;51.344;6.550;2023-04-29T11:51:15;101467.00;;;14.37;70.90
75740;BME280;64357;51.344;6.550;2023-04-29T11:53:41;101474.28;;;14.24;70.84
75740;BME280;64357;51.344;6.550;2023-04-29T11:56:10;101463.84;;;14.31;70.13
75740;BME280;64357;51.344;6.550;2023-04-29T11:58:36;101471.34;;;14.75;68.74
75740;BME280;64357;51.344;6.550;2023-04-29T12:01:03;101465.88;;;14.53;69.03
75740;BME280;64357;51.344;6.550;2023-04-29T12:03:32;101479.41;;;14.97;68.53
75740;BME280;64357;51.344;6.550;2023-04-29T12:05:58;101477.81;;;14.61;67.30
75740;BME280;64357;51.344;6.550;2023-04-29T12:08:25;101470.13;;;14.44;68.78
75740;BME280;64357;51.344;6.550;2023-04-29T12:10:55;101473.22;;;15.32;66.78
75740;BME280;64357;51.344;6.550;2023-04-29T12:13:22;101469.63;;;16.17;61.60
75740;BME280;64357;51.344;6.550;2023-04-29T12:15:49;101453.06;;;16.34;60.51
75740;BME280;64357;51.344;6.550;2023-04-29T12:18:19;101456.31;;;16.42;61.20
75740;BME280;64357;51.344;6.550;2023-04-29T12:20:50;101463.25;;;15.93;61.53
75740;BME280;64357;51.344;6.550;2023-04-29T12:23:21;101459.91;;;15.94;61.96
75740;BME280;64357;51.344;6.550;2023-04-29T12:26:03;101455.19;;;16.99;59.01
75740;BME280;64357;51.344;6.550;2023-04-29T12:28:29;101449.16;;;17.41;56.22
75740;BME280;64357;51.344;6.550;2023-04-29T12:31:00;101463.69;;;17.71;54.74
75740;BME280;64357;51.344;6.550;2023-04-29T12:33:28;101465.41;;;18.03;54.50
75740;BME280;64357;51.344;6.550;2023-04-29T12:35:57;101459.75;;;18.19;53.53
75740;BME280;64357;51.344;6.550;2023-04-29T12:38:25;101463.75;;;17.51;54.49
75740;BME280;64357;51.344;6.550;2023-04-29T12:40:55;101467.72;;;16.85;55.56
75740;BME280;64357;51.344;6.550;2023-04-29T12:43:27;101462.56;;;16.15;58.24
75740;BME280;64357;51.344;6.550;2023-04-29T12:46:07;101461.19;;;15.89;60.17
75740;BME280;64357;51.344;6.550;2023-04-29T12:48:36;101465.16;;;15.38;62.04
75740;BME280;64357;51.344;6.550;2023-04-29T12:51:10;101466.63;;;15.26;63.41
75740;BME280;64357;51.344;6.550;2023-04-29T12:53:38;101472.56;;;14.78;63.70
75740;BME280;64357;51.344;6.550;2023-04-29T12:56:07;101469.34;;;14.81;64.02
75740;BME280;64357;51.344;6.550;2023-04-29T12:58:32;101478.63;;;14.70;63.98
75740;BME280;64357;51.344;6.550;2023-04-29T13:01:01;101476.03;;;14.51;65.87
75740;BME280;64357;51.344;6.550;2023-04-29T13:03:26;101474.66;;;14.46;65.72
75740;BME280;64357;51.344;6.550;2023-04-29T13:05:54;101481.34;;;14.35;66.22
75740;BME280;64357;51.344;6.550;2023-04-29T13:08:20;101484.53;;;14.33;67.09
75740;BME280;64357;51.344;6.550;2023-04-29T13:10:46;101488.84;;;14.06;66.91
75740;BME280;64357;51.344;6.550;2023-04-29T13:13:17;101491.88;;;14.11;67.62